createdAt,value
2022-11-18T00:01:18.954Z,94.88
2022-11-18T00:03:45.548Z,95.40
2022-11-18T00:06:16.083Z,94.68
2022-11-18T00:08:42.873Z,94.50
2022-11-18T00:11:33.822Z,94.52
2022-11-18T00:14:18.855Z,94.63
2022-11-18T00:16:45.831Z,94.54
2022-11-18T00:19:12.201Z,94.51
2022-11-18T00:21:38.630Z,94.48
2022-11-18T00:24:05.207Z,94.36
2022-11-18T00:26:31.657Z,94.16
2022-11-18T00:28:58.073Z,94.19
2022-11-18T00:31:24.561Z,94.24
2022-11-18T00:33:50.976Z,93.55
2022-11-18T00:36:17.514Z,93.32
2022-11-18T00:38:43.921Z,93.70
2022-11-18T00:41:11.581Z,94.03
2022-11-18T00:43:38.046Z,94.81
2022-11-18T00:46:05.615Z,94.97
2022-11-18T00:48:32.274Z,94.49
2022-11-18T00:50:59.836Z,94.85
2022-11-18T00:53:27.063Z,94.71
2022-11-18T00:55:53.592Z,94.72
2022-11-18T00:58:20.087Z,94.93
2022-11-18T01:00:48.787Z,95.21
2022-11-18T01:03:15.233Z,94.86
2022-11-18T01:05:41.781Z,95.48
2022-11-18T01:08:09.008Z,95.29
2022-11-18T01:10:35.804Z,95.00
2022-11-18T01:13:20.275Z,94.22
2022-11-18T01:15:49.619Z,94.60
2022-11-18T01:18:16.945Z,94.01
2022-11-18T01:20:43.432Z,94.54
2022-11-18T01:23:09.929Z,93.78
2022-11-18T01:25:37.443Z,93.80
2022-11-18T01:28:04.447Z,94.18
2022-11-18T01:30:32.999Z,93.99
2022-11-18T01:32:59.430Z,93.97
2022-11-18T01:35:25.911Z,94.53
2022-11-18T01:37:52.523Z,94.31
2022-11-18T01:40:18.937Z,94.54
2022-11-18T01:42:45.419Z,95.07
2022-11-18T01:45:17.704Z,95.66
2022-11-18T01:47:48.236Z,95.77
2022-11-18T01:50:16.679Z,96.27
2022-11-18T01:52:47.410Z,96.18
2022-11-18T01:55:18.708Z,95.72
2022-11-18T01:57:48.121Z,95.12
2022-11-18T02:00:14.760Z,95.71
2022-11-18T02:02:41.846Z,95.75
2022-11-18T02:05:10.720Z,96.33
2022-11-18T02:07:42.925Z,96.03
2022-11-18T02:10:10.653Z,96.40
2022-11-18T02:12:37.394Z,96.95
2022-11-18T02:15:04.091Z,96.65
2022-11-18T02:17:36.351Z,96.31
2022-11-18T02:20:08.677Z,96.37
2022-11-18T02:22:53.232Z,96.67
2022-11-18T02:25:38.565Z,96.60
2022-11-18T02:28:08.112Z,96.21
2022-11-18T02:30:39.686Z,96.89
2022-11-18T02:33:15.887Z,96.83
2022-11-18T02:35:53.513Z,97.04
2022-11-18T02:38:24.443Z,97.26
2022-11-18T02:41:01.282Z,96.92
2022-11-18T02:43:31.105Z,97.39
2022-11-18T02:46:01.088Z,97.08
2022-11-18T02:48:30.045Z,96.25
2022-11-18T02:50:57.933Z,96.06
2022-11-18T02:53:25.556Z,96.15
2022-11-18T02:55:52.709Z,95.75
2022-11-18T02:58:20.470Z,95.99
2022-11-18T03:00:53.496Z,96.25
2022-11-18T03:03:28.798Z,96.33
2022-11-18T03:05:55.188Z,96.45
2022-11-18T03:08:25.919Z,96.99
2022-11-18T03:11:14.336Z,97.02
2022-11-18T03:13:51.553Z,96.47
2022-11-18T03:16:22.209Z,96.06
2022-11-18T03:18:54.111Z,96.38
2022-11-18T03:21:32.041Z,95.97
2022-11-18T03:24:05.389Z,95.80
2022-11-18T03:26:33.154Z,95.48
2022-11-18T03:29:06.702Z,96.02
2022-11-18T03:31:39.365Z,96.58
2022-11-18T03:34:18.103Z,96.12
2022-11-18T03:36:51.946Z,96.17
2022-11-18T03:39:20.048Z,96.00
2022-11-18T03:41:50.307Z,97.22
2022-11-18T03:44:36.611Z,97.88
2022-11-18T03:47:14.851Z,98.32
2022-11-18T03:49:51.046Z,98.06
2022-11-18T03:52:20.382Z,98.66
2022-11-18T03:54:48.545Z,98.64
2022-11-18T03:57:18.231Z,98.55
2022-11-18T04:00:03.517Z,99.37
2022-11-18T04:02:30.867Z,99.21
2022-11-18T04:04:58.379Z,99.50
2022-11-18T04:07:24.824Z,99.29
2022-11-18T04:09:57.476Z,99.73
2022-11-18T04:12:26.397Z,99.45
2022-11-18T04:14:55.543Z,98.96
2022-11-18T04:17:23.608Z,98.65
2022-11-18T04:19:50.252Z,98.88
2022-11-18T04:22:17.818Z,98.47
2022-11-18T04:24:44.229Z,98.09
2022-11-18T04:27:11.295Z,97.38
2022-11-18T04:29:37.807Z,97.42
2022-11-18T04:32:04.761Z,97.51
2022-11-18T04:34:31.417Z,97.24
2022-11-18T04:36:58.606Z,97.99
2022-11-18T04:39:25.007Z,97.68
2022-11-18T04:41:57.524Z,97.26
2022-11-18T04:44:25.070Z,97.26
2022-11-18T04:46:52.096Z,97.51
2022-11-18T04:49:18.845Z,97.67
2022-11-18T04:51:45.539Z,97.76
2022-11-18T04:54:12.413Z,97.73
2022-11-18T04:56:42.795Z,97.49
2022-11-18T04:59:12.745Z,97.54
2022-11-18T05:01:39.467Z,96.94
2022-11-18T05:04:06.612Z,97.77
2022-11-18T05:06:33.603Z,97.33
2022-11-18T05:09:00.985Z,98.15
2022-11-18T05:11:46.640Z,97.63
2022-11-18T05:14:13.364Z,97.44
2022-11-18T05:16:39.907Z,97.40
2022-11-18T05:19:06.738Z,97.54
2022-11-18T05:21:33.232Z,96.76
2022-11-18T05:23:59.996Z,97.10
2022-11-18T05:26:26.414Z,97.54
2022-11-18T05:28:52.839Z,97.49
2022-11-18T05:31:19.296Z,97.32
2022-11-18T05:33:45.838Z,98.03
2022-11-18T05:36:13.307Z,98.23
2022-11-18T05:38:39.943Z,98.11
2022-11-18T05:41:06.803Z,98.40
2022-11-18T05:43:33.765Z,98.50
2022-11-18T05:46:00.167Z,97.59
2022-11-18T05:48:26.644Z,97.92
2022-11-18T05:50:53.991Z,97.62
2022-11-18T05:53:21.792Z,97.93
2022-11-18T05:55:53.421Z,97.38
2022-11-18T05:58:19.862Z,97.34
2022-11-18T06:00:47.841Z,97.75
2022-11-18T06:03:19.011Z,98.65
2022-11-18T06:05:45.597Z,98.78
2022-11-18T06:08:13.202Z,99.26
2022-11-18T06:10:41.982Z,99.56
2022-11-18T06:13:09.710Z,99.33
2022-11-18T06:15:38.848Z,99.52
2022-11-18T06:18:13.189Z,98.85
2022-11-18T06:20:40.732Z,98.66
2022-11-18T06:23:07.158Z,98.46
2022-11-18T06:25:33.934Z,98.00
2022-11-18T06:28:01.838Z,98.05
2022-11-18T06:30:28.245Z,97.79
2022-11-18T06:32:54.702Z,97.96
2022-11-18T06:35:21.236Z,98.59
2022-11-18T06:37:47.701Z,98.28
2022-11-18T06:40:14.207Z,98.02
2022-11-18T06:42:59.342Z,98.34
2022-11-18T06:45:25.952Z,97.18
2022-11-18T06:47:56.315Z,97.42
2022-11-18T06:50:22.752Z,96.93
2022-11-18T06:52:49.140Z,97.57
2022-11-18T06:55:15.555Z,97.10
2022-11-18T06:57:41.950Z,97.42
2022-11-18T07:00:08.640Z,98.02
2022-11-18T07:02:38.490Z,98.44
2022-11-18T07:05:06.279Z,98.20
2022-11-18T07:07:40.348Z,98.65
2022-11-18T07:10:08.663Z,98.53
2022-11-18T07:12:36.268Z,98.27
2022-11-18T07:15:02.770Z,98.41
2022-11-18T07:17:30.223Z,97.73
2022-11-18T07:19:56.611Z,98.02
2022-11-18T07:22:23.034Z,97.86
2022-11-18T07:24:49.511Z,97.00
2022-11-18T07:27:15.920Z,96.98
2022-11-18T07:29:42.321Z,97.34
2022-11-18T07:32:08.804Z,96.97
2022-11-18T07:34:35.227Z,96.64
2022-11-18T07:37:01.660Z,96.50
2022-11-18T07:39:28.091Z,96.96
2022-11-18T07:41:54.471Z,96.30
2022-11-18T07:44:20.879Z,96.79
2022-11-18T07:46:47.293Z,96.22
2022-11-18T07:49:13.836Z,97.22
2022-11-18T07:51:40.776Z,97.20
2022-11-18T07:54:11.115Z,97.57
2022-11-18T07:56:37.840Z,97.60
2022-11-18T07:59:04.715Z,97.41
2022-11-18T08:01:31.532Z,97.21
2022-11-18T08:04:03.964Z,97.58
2022-11-18T08:06:32.086Z,97.57
2022-11-18T08:08:58.465Z,97.11
2022-11-18T08:11:24.861Z,97.45
2022-11-18T08:13:51.491Z,97.55
2022-11-18T08:16:22.294Z,97.22
2022-11-18T08:18:48.895Z,97.50
2022-11-18T08:21:16.240Z,97.61
2022-11-18T08:23:43.098Z,97.71
2022-11-18T08:26:15.427Z,97.57
2022-11-18T08:28:42.684Z,97.47
2022-11-18T08:31:13.613Z,96.95
2022-11-18T08:33:40.288Z,96.79
2022-11-18T08:36:07.676Z,97.41
2022-11-18T08:38:34.071Z,97.22
2022-11-18T08:41:00.562Z,97.22
2022-11-18T08:43:26.951Z,97.48
2022-11-18T08:45:53.330Z,98.10
2022-11-18T08:48:19.728Z,98.04
2022-11-18T08:50:46.194Z,98.10
2022-11-18T08:53:12.563Z,97.73
2022-11-18T08:55:38.969Z,98.16
2022-11-18T08:58:05.369Z,98.13
2022-11-18T09:00:31.733Z,98.03
2022-11-18T09:02:58.117Z,97.68
2022-11-18T09:05:24.492Z,98.30
2022-11-18T09:07:51.057Z,98.26
2022-11-18T09:10:17.532Z,97.94
2022-11-18T09:12:43.926Z,98.80
2022-11-18T09:15:14.822Z,98.68
2022-11-18T09:17:42.004Z,98.12
2022-11-18T09:20:08.729Z,97.85
2022-11-18T09:22:36.424Z,98.11
2022-11-18T09:25:02.818Z,97.95
2022-11-18T09:27:29.251Z,97.53
2022-11-18T09:29:55.651Z,97.78
2022-11-18T09:32:22.032Z,97.67
2022-11-18T09:34:48.686Z,98.04
2022-11-18T09:37:15.103Z,97.77
2022-11-18T09:39:41.550Z,98.22
2022-11-18T09:42:23.765Z,97.72
2022-11-18T09:45:11.802Z,97.90
2022-11-18T09:47:39.975Z,98.50
2022-11-18T09:50:49.057Z,98.27
2022-11-18T09:53:18.157Z,97.63
2022-11-18T09:55:44.968Z,97.91
2022-11-18T09:58:17.265Z,98.08
2022-11-18T10:00:44.360Z,97.86
2022-11-18T10:03:25.610Z,97.52
2022-11-18T10:05:55.105Z,97.04
2022-11-18T10:08:21.827Z,97.02
2022-11-18T10:10:51.313Z,96.50
2022-11-18T10:13:27.220Z,96.35
2022-11-18T10:15:59.143Z,96.64
2022-11-18T10:21:24.269Z,96.45
2022-11-18T10:23:50.622Z,95.99
2022-11-18T10:26:30.493Z,95.75
2022-11-18T10:28:57.701Z,94.87
2022-11-18T10:31:24.109Z,95.03
2022-11-18T10:33:58.131Z,94.40
2022-11-18T10:36:24.518Z,94.52
2022-11-18T10:39:04.930Z,94.61
2022-11-18T10:41:38.097Z,94.26
2022-11-18T10:44:09.317Z,93.60
2022-11-18T10:46:41.271Z,93.48
2022-11-18T10:49:10.798Z,93.53
2022-11-18T10:51:38.517Z,93.96
2022-11-18T10:54:16.018Z,94.68
2022-11-18T10:56:45.808Z,94.53
2022-11-18T10:59:19.355Z,94.55
2022-11-18T11:01:57.072Z,94.03
2022-11-18T11:04:24.924Z,95.15
2022-11-18T11:06:51.444Z,94.94
2022-11-18T11:09:26.922Z,94.68
2022-11-18T11:12:04.531Z,94.35
2022-11-18T11:14:43.962Z,94.64
2022-11-18T11:17:10.629Z,94.10
2022-11-18T11:20:00.863Z,93.75
2022-11-18T11:22:28.287Z,93.43
2022-11-18T11:24:55.921Z,94.11
2022-11-18T11:30:23.642Z,94.74
2022-11-18T11:32:52.705Z,94.88
2022-11-18T11:35:23.265Z,95.07
2022-11-18T11:37:55.553Z,95.13
2022-11-18T11:40:29.489Z,94.64
2022-11-18T11:43:16.543Z,95.15
2022-11-18T11:45:52.067Z,94.64
2022-11-18T11:48:23.664Z,95.10
2022-11-18T11:51:04.970Z,95.30
2022-11-18T11:53:50.561Z,94.87
2022-11-18T11:56:21.237Z,95.58
2022-11-18T11:58:55.025Z,96.35
2022-11-18T12:01:40.318Z,96.06
2022-11-18T12:04:12.855Z,96.63
2022-11-18T12:06:39.309Z,97.15
2022-11-18T12:09:22.378Z,96.60
2022-11-18T12:12:29.012Z,97.04
2022-11-18T12:14:59.239Z,97.62
2022-11-18T12:17:32.140Z,97.09
2022-11-18T12:19:58.528Z,97.10
2022-11-18T12:22:44.850Z,96.51
2022-11-18T12:25:31.173Z,96.33
2022-11-18T12:28:00.639Z,96.97
2022-11-18T12:30:27.258Z,97.09
2022-11-18T12:32:56.980Z,97.37
2022-11-18T12:35:28.443Z,97.17
2022-11-18T12:37:54.810Z,97.06
2022-11-18T12:40:31.866Z,96.88
2022-11-18T12:43:17.047Z,96.84
2022-11-18T12:45:44.302Z,95.67
2022-11-18T12:48:30.646Z,96.39
2022-11-18T12:50:58.060Z,96.85
2022-11-18T12:53:36.461Z,96.80
2022-11-18T12:56:21.155Z,97.55
2022-11-18T12:58:52.249Z,97.45
2022-11-18T13:01:21.287Z,97.40
2022-11-18T13:03:47.743Z,96.42
2022-11-18T13:06:22.049Z,96.51
2022-11-18T13:08:57.758Z,97.03
2022-11-18T13:11:43.779Z,96.01
2022-11-18T13:14:46.868Z,96.17
2022-11-18T13:17:51.112Z,96.67
2022-11-18T13:20:23.303Z,95.83
2022-11-18T13:23:19.023Z,96.84
2022-11-18T13:25:45.993Z,96.45
2022-11-18T13:28:23.372Z,96.51
2022-11-18T13:30:54.685Z,96.65
2022-11-18T13:33:21.127Z,96.01
2022-11-18T13:35:47.526Z,96.26
2022-11-18T13:38:24.391Z,96.31
2022-11-18T13:41:08.315Z,96.17
2022-11-18T13:43:35.388Z,95.99
2022-11-18T13:46:04.442Z,96.84
2022-11-18T13:48:31.337Z,96.36
2022-11-18T13:50:59.427Z,97.09
2022-11-18T13:53:30.571Z,96.77
2022-11-18T13:56:08.245Z,96.41
2022-11-18T13:59:10.249Z,96.00
2022-11-18T14:01:27.665Z,96.44
2022-11-18T14:04:01.473Z,96.04
2022-11-18T14:06:29.242Z,94.87
2022-11-18T14:09:04.705Z,95.29
2022-11-18T14:11:35.584Z,95.14
2022-11-18T14:14:02.086Z,94.88
2022-11-18T14:16:36.068Z,95.22
2022-11-18T14:19:02.545Z,93.84
2022-11-18T14:21:30.464Z,94.33
2022-11-18T14:23:57.246Z,94.28
2022-11-18T14:26:28.295Z,94.92
2022-11-18T14:28:55.968Z,94.97
2022-11-18T14:31:24.747Z,94.27
2022-11-18T14:34:09.945Z,94.06
2022-11-18T14:36:36.333Z,94.64
2022-11-18T14:39:25.971Z,94.27
2022-11-18T14:41:53.832Z,94.19
2022-11-18T14:44:21.469Z,94.14
2022-11-18T14:47:10.921Z,94.83
2022-11-18T14:49:37.536Z,94.54
2022-11-18T14:52:04.656Z,94.74
2022-11-18T14:54:31.522Z,94.64
2022-11-18T14:57:00.265Z,94.42
2022-11-18T14:59:26.813Z,93.61
2022-11-18T15:01:53.395Z,93.98
2022-11-18T15:04:21.939Z,94.15
2022-11-18T15:06:48.628Z,93.71
2022-11-18T15:09:15.179Z,93.77
2022-11-18T15:11:41.574Z,94.06
2022-11-18T15:14:07.953Z,93.49
2022-11-18T15:16:35.267Z,93.90
2022-11-18T15:19:03.277Z,93.58
2022-11-18T15:21:30.259Z,93.57
2022-11-18T15:23:56.789Z,93.18
2022-11-18T15:26:25.910Z,93.06
2022-11-18T15:28:53.590Z,92.87
2022-11-18T15:31:20.482Z,92.62
2022-11-18T15:33:48.491Z,92.04
2022-11-18T15:36:19.908Z,92.50
2022-11-18T15:38:46.733Z,91.86
2022-11-18T15:41:17.559Z,91.65
2022-11-18T15:43:44.901Z,92.31
2022-11-18T15:46:11.289Z,91.05
2022-11-18T15:48:37.802Z,90.80
2022-11-18T15:51:11.463Z,90.87
2022-11-18T15:53:39.094Z,91.95
2022-11-18T15:56:14.830Z,91.58
2022-11-18T15:58:41.426Z,91.28
2022-11-18T16:01:07.836Z,91.11
2022-11-18T16:03:34.723Z,91.15
2022-11-18T16:06:01.126Z,90.43
2022-11-18T16:08:27.533Z,89.81
2022-11-18T16:11:15.604Z,89.86
2022-11-18T16:13:42.243Z,89.34
2022-11-18T16:16:08.719Z,89.39
2022-11-18T16:18:37.930Z,90.32
2022-11-18T16:21:07.067Z,91.10
2022-11-18T16:23:33.430Z,91.48
2022-11-18T16:26:00.134Z,89.62
2022-11-18T16:28:27.278Z,90.75
2022-11-18T16:31:12.462Z,90.87
2022-11-18T16:33:38.885Z,90.20
2022-11-18T16:36:05.415Z,91.62
2022-11-18T16:38:31.779Z,91.76
2022-11-18T16:40:58.933Z,91.66
2022-11-18T16:43:25.507Z,91.97
2022-11-18T16:45:54.782Z,91.74
2022-11-18T16:48:22.079Z,91.38
2022-11-18T16:51:26.974Z,91.99
2022-11-18T16:53:54.239Z,91.85
2022-11-18T16:56:21.661Z,91.24
2022-11-18T16:58:48.476Z,92.44
2022-11-18T17:01:20.039Z,91.93
2022-11-18T17:03:49.846Z,91.89
2022-11-18T17:06:16.222Z,92.54
2022-11-18T17:08:42.630Z,93.24
2022-11-18T17:11:09.610Z,92.75
2022-11-18T17:13:37.056Z,92.55
2022-11-18T17:16:16.737Z,93.54
2022-11-18T17:18:43.438Z,93.66
2022-11-18T17:21:11.160Z,93.25
2022-11-18T17:23:38.164Z,94.42
2022-11-18T17:26:05.197Z,94.54
2022-11-18T17:28:32.549Z,95.35
2022-11-18T17:31:04.453Z,94.66
2022-11-18T17:33:30.805Z,94.78
2022-11-18T17:36:16.656Z,94.82
2022-11-18T17:38:44.266Z,94.82
2022-11-18T17:41:31.602Z,94.34
2022-11-18T17:43:58.388Z,95.04
2022-11-18T17:46:24.849Z,94.62
2022-11-18T17:49:01.419Z,95.01
2022-11-18T17:51:29.360Z,95.48
2022-11-18T17:53:56.162Z,94.93
2022-11-18T17:56:22.979Z,95.25
2022-11-18T17:58:49.852Z,94.82
2022-11-18T18:01:17.151Z,95.29
2022-11-18T18:03:43.631Z,95.77
2022-11-18T18:06:11.072Z,96.37
2022-11-18T18:08:37.750Z,96.41
2022-11-18T18:11:05.929Z,96.33
2022-11-18T18:13:51.073Z,96.61
2022-11-18T18:16:17.509Z,96.17
2022-11-18T18:18:44.048Z,96.03
2022-11-18T18:21:13.010Z,95.06
2022-11-18T18:23:39.950Z,94.31
2022-11-18T18:26:07.321Z,94.64
2022-11-18T18:28:34.178Z,94.61
2022-11-18T18:31:05.489Z,94.91
2022-11-18T18:33:32.627Z,94.54
2022-11-18T18:36:02.860Z,94.12
2022-11-18T18:38:32.116Z,93.85
2022-11-18T18:41:17.728Z,92.96
2022-11-18T18:43:44.384Z,93.42
2022-11-18T18:46:31.892Z,93.16
2022-11-18T18:49:03.025Z,93.26
2022-11-18T18:51:30.669Z,94.18
2022-11-18T18:53:57.583Z,93.64
2022-11-18T18:56:24.056Z,94.06
2022-11-18T18:58:50.476Z,93.63
2022-11-18T19:01:17.756Z,92.63
2022-11-18T19:03:44.439Z,91.92
2022-11-18T19:06:41.915Z,92.83
2022-11-18T19:09:01.339Z,92.98
2022-11-18T19:11:46.429Z,92.40
2022-11-18T19:14:14.201Z,92.01
2022-11-18T19:16:40.785Z,91.89
2022-11-18T19:19:07.890Z,92.00
2022-11-18T19:21:34.961Z,92.58
2022-11-18T19:24:05.080Z,92.83
2022-11-18T19:26:34.557Z,92.62
2022-11-18T19:29:01.414Z,92.85
2022-11-18T19:31:27.830Z,92.37
2022-11-18T19:33:54.443Z,92.02
2022-11-18T19:36:21.062Z,92.75
2022-11-18T19:38:50.314Z,92.16
2022-11-18T19:41:16.951Z,92.17
2022-11-18T19:43:43.389Z,92.53
2022-11-18T19:46:09.821Z,92.38
2022-11-18T19:48:36.243Z,91.72
2022-11-18T19:51:05.510Z,91.99
2022-11-18T19:53:31.995Z,92.24
2022-11-18T19:56:02.491Z,91.99
2022-11-18T19:58:30.977Z,91.96
2022-11-18T20:00:57.470Z,92.40
2022-11-18T20:03:23.922Z,92.07
2022-11-18T20:05:53.132Z,92.46
2022-11-18T20:08:20.415Z,91.79
2022-11-18T20:10:47.339Z,91.59
2022-11-18T20:13:14.923Z,91.06
2022-11-18T20:15:41.748Z,91.54
2022-11-18T20:18:08.250Z,91.09
2022-11-18T20:20:34.965Z,90.38
2022-11-18T20:23:01.567Z,90.74
2022-11-18T20:25:28.146Z,90.98
2022-11-18T20:27:54.903Z,91.48
2022-11-18T20:30:21.615Z,90.32
2022-11-18T20:32:48.188Z,90.51
2022-11-18T20:35:14.875Z,91.12
2022-11-18T20:37:44.604Z,91.25
2022-11-18T20:40:11.685Z,91.22
2022-11-18T20:42:56.670Z,90.85
2022-11-18T20:45:23.319Z,89.84
2022-11-18T20:47:49.755Z,89.11
2022-11-18T20:50:16.278Z,89.72
2022-11-18T20:52:42.658Z,89.17
2022-11-18T20:55:10.012Z,88.33
2022-11-18T20:57:36.460Z,88.34
2022-11-18T21:00:03.010Z,88.92
2022-11-18T21:02:29.879Z,88.54
2022-11-18T21:04:56.260Z,87.84
2022-11-18T21:07:22.906Z,86.58
2022-11-18T21:09:50.470Z,87.17
2022-11-18T21:12:16.849Z,87.23
2022-11-18T21:14:43.238Z,87.01
2022-11-18T21:17:09.728Z,87.04
2022-11-18T21:19:36.134Z,87.15
2022-11-18T21:22:02.535Z,87.51
2022-11-18T21:24:30.017Z,86.64
2022-11-18T21:26:57.822Z,87.11
2022-11-18T21:29:25.877Z,87.58
2022-11-18T21:31:52.484Z,87.16
2022-11-18T21:34:19.346Z,87.86
2022-11-18T21:36:50.359Z,87.84
2022-11-18T21:39:19.842Z,88.96
2022-11-18T21:41:50.642Z,88.92
2022-11-18T21:44:20.340Z,88.10
2022-11-18T21:46:46.723Z,88.82
2022-11-18T21:49:13.130Z,88.88
2022-11-18T21:51:39.544Z,87.62
2022-11-18T21:54:06.013Z,88.06
2022-11-18T21:56:32.534Z,87.52
2022-11-18T21:58:59.963Z,87.78
2022-11-18T22:01:27.746Z,87.39
2022-11-18T22:03:58.343Z,87.46
2022-11-18T22:06:25.498Z,87.05
2022-11-18T22:08:52.338Z,86.53
2022-11-18T22:11:20.353Z,86.36
2022-11-18T22:13:46.822Z,84.88
2022-11-18T22:16:14.695Z,85.72
2022-11-18T22:18:42.264Z,84.87
2022-11-18T22:21:16.206Z,85.45
2022-11-18T22:23:42.822Z,85.74
2022-11-18T22:26:13.964Z,85.09
2022-11-18T22:28:40.532Z,84.99
2022-11-18T22:31:09.190Z,84.72
2022-11-18T22:33:35.635Z,84.49
2022-11-18T22:36:06.248Z,84.85
2022-11-18T22:38:33.100Z,84.85
2022-11-18T22:41:01.490Z,84.89
2022-11-18T22:43:29.338Z,83.66
2022-11-18T22:46:02.819Z,83.79
2022-11-18T22:48:29.212Z,83.79
2022-11-18T22:50:56.467Z,83.82
2022-11-18T22:53:22.844Z,83.50
2022-11-18T22:55:49.225Z,84.14
2022-11-18T22:58:15.692Z,84.11
2022-11-18T23:00:42.144Z,85.10
2022-11-18T23:03:08.530Z,82.98
2022-11-18T23:05:35.973Z,83.53
2022-11-18T23:08:02.410Z,83.19
2022-11-18T23:10:30.270Z,82.98
2022-11-18T23:13:15.099Z,83.21
2022-11-18T23:15:41.774Z,82.38
2022-11-18T23:18:11.593Z,82.46
2022-11-18T23:20:38.490Z,81.63
2022-11-18T23:23:04.856Z,81.79
2022-11-18T23:25:31.698Z,81.54
2022-11-18T23:27:58.121Z,82.21
2022-11-18T23:30:24.490Z,82.79
2022-11-18T23:32:52.415Z,82.52
2022-11-18T23:35:18.798Z,81.72
2022-11-18T23:37:45.190Z,82.14
2022-11-18T23:40:11.845Z,82.13
2022-11-18T23:42:38.206Z,82.08
2022-11-18T23:45:05.579Z,82.12
2022-11-18T23:47:32.103Z,81.43
2022-11-18T23:49:58.491Z,80.82
2022-11-18T23:52:24.876Z,79.67
2022-11-18T23:54:53.040Z,80.15
2022-11-18T23:57:19.501Z,81.03
2022-11-18T23:59:45.978Z,80.48
